Time;durP1;ratioP1;P1;durP2;ratioP2;P2;SDS_P1;SDS_P2;PMS_P1;PMS_P2;Temp;Humidity;BMP_temperature;BMP_pressure;BME280_temperature;BME280_humidity;BME280_pressure;Samples;Min_cycle;Max_cycle;Signal;HPM_P1;HPM_P2
2021/03/29 00:02:03;;;;;;;11.25;3.35;;;;;;;12.21;45.59;101434.22;5055469;28;20045;-74
2021/03/29 00:04:30;;;;;;;9.70;3.25;;;;;;;12.24;45.59;101419.66;5045503;28;20072;-74
2021/03/29 00:07:01;;;;;;;9.18;3.20;;;;;;;12.24;45.45;101424.38;5036168;28;20415;-74
2021/03/29 00:09:30;;;;;;;13.02;3.08;;;;;;;12.27;45.76;101434.97;5035308;28;20060;-74
2021/03/29 00:12:01;;;;;;;8.48;3.40;;;;;;;12.29;45.48;101435.50;5035533;28;20415;-74
2021/03/29 00:14:30;;;;;;;8.23;3.65;;;;;;;12.32;45.51;101437.69;5042087;28;20052;-73
2021/03/29 00:16:57;;;;;;;10.82;3.30;;;;;;;12.33;45.46;101433.75;5054464;28;20057;-75
2021/03/29 00:19:26;;;;;;;8.88;3.38;;;;;;;12.30;45.61;101435.19;5054874;28;20418;-75
2021/03/29 00:21:54;;;;;;;8.40;2.65;;;;;;;12.32;45.28;101432.09;5051202;28;20065;-76
2021/03/29 00:24:22;;;;;;;7.78;2.83;;;;;;;12.35;45.22;101426.75;5035964;28;20050;-75
2021/03/29 00:26:50;;;;;;;9.10;3.42;;;;;;;12.38;45.20;101425.28;5035648;28;20049;-75
2021/03/29 00:29:17;;;;;;;12.93;4.43;;;;;;;12.41;45.33;101416.31;5034977;28;20061;-75
2021/03/29 00:31:45;;;;;;;9.15;3.10;;;;;;;12.43;45.09;101410.41;5034798;28;20415;-74
2021/03/29 00:34:14;;;;;;;10.57;3.88;;;;;;;12.41;45.23;101413.53;5043801;28;20064;-74
2021/03/29 00:36:42;;;;;;;8.25;3.35;;;;;;;12.46;45.31;101409.81;5054291;28;20061;-75
2021/03/29 00:39:10;;;;;;;10.27;4.53;;;;;;;12.46;45.02;101402.25;5054231;28;20083;-75
2021/03/29 00:41:37;;;;;;;7.20;3.15;;;;;;;12.47;45.11;101408.66;5054151;28;20061;-75
2021/03/29 00:44:07;;;;;;;9.10;3.00;;;;;;;12.48;44.75;101413.13;5049574;28;20057;-75
2021/03/29 00:46:35;;;;;;;7.65;3.38;;;;;;;12.48;44.90;101419.53;5034338;28;20495;-75
2021/03/29 00:49:03;;;;;;;7.35;2.70;;;;;;;12.52;44.81;101420.59;5034711;28;20060;-75
2021/03/29 00:51:35;;;;;;;8.27;3.80;;;;;;;12.50;45.17;101420.06;5038889;28;20403;-75
2021/03/29 00:54:04;;;;;;;10.73;3.33;;;;;;;12.52;44.68;101420.59;5034084;28;20049;-75
2021/03/29 00:56:31;;;;;;;7.95;3.75;;;;;;;12.51;45.21;101424.50;5034617;28;20050;-75
2021/03/29 00:59:00;;;;;;;6.70;3.35;;;;;;;12.54;44.58;101418.34;5034484;28;20156;-75
2021/03/29 01:01:30;;;;;;;7.65;3.67;;;;;;;12.53;44.76;101422.25;5034073;28;20061;-75
2021/03/29 01:04:03;;;;;;;8.80;3.55;;;;;;;12.56;44.99;101418.84;5033797;28;20530;-75
2021/03/29 01:06:32;;;;;;;8.38;3.75;;;;;;;12.55;45.12;101419.97;5034078;28;20061;-75
2021/03/29 01:09:02;;;;;;;7.28;3.33;;;;;;;12.57;44.92;101414.91;5034169;28;20483;-75
2021/03/29 01:11:32;;;;;;;9.07;3.70;;;;;;;12.55;45.01;101413.56;5034673;28;20149;-75
2021/03/29 01:14:04;;;;;;;8.07;3.60;;;;;;;12.56;44.65;101416.06;5033952;28;20046;-74
2021/03/29 01:16:36;;;;;;;10.85;3.80;;;;;;;12.59;44.88;101421.03;5039267;28;20049;-75
2021/03/29 01:19:10;;;;;;;10.32;3.63;;;;;;;12.58;44.63;101410.19;5034313;28;20052;-75
2021/03/29 01:21:54;;;;;;;9.95;3.70;;;;;;;12.60;44.86;101407.91;5033736;28;20072;-74
2021/03/29 01:24:26;;;;;;;8.27;4.13;;;;;;;12.58;44.84;101408.19;5034538;28;20053;-75
2021/03/29 01:26:54;;;;;;;9.13;3.55;;;;;;;12.61;44.65;101417.13;5033844;28;20407;-75
2021/03/29 01:29:29;;;;;;;10.65;4.05;;;;;;;12.62;44.68;101415.97;5033806;28;20415;-74
2021/03/29 01:31:59;;;;;;;11.23;4.00;;;;;;;12.59;44.76;101406.22;5033997;28;20060;-75
2021/03/29 01:34:28;;;;;;;11.57;4.07;;;;;;;12.53;44.75;101411.06;5044504;28;20068;-75
2021/03/29 01:36:57;;;;;;;10.82;4.35;;;;;;;12.51;45.00;101413.34;5053314;28;20064;-75
2021/03/29 01:39:25;;;;;;;8.50;4.30;;;;;;;12.47;44.81;101412.28;5053677;28;20057;-75
2021/03/29 01:41:56;;;;;;;12.63;3.90;;;;;;;12.45;44.94;101408.13;5053191;28;20057;-76
2021/03/29 01:44:25;;;;;;;8.43;3.72;;;;;;;12.37;45.12;101409.69;5044699;28;20053;-75
2021/03/29 01:46:53;;;;;;;10.15;3.63;;;;;;;12.31;45.20;101396.91;5033755;28;20064;-75
2021/03/29 01:49:20;;;;;;;9.27;3.80;;;;;;;12.22;45.46;101404.31;5033375;28;20060;-75
2021/03/29 01:51:48;;;;;;;9.32;3.72;;;;;;;12.20;45.48;101407.44;5033282;28;20050;-75
2021/03/29 01:54:17;;;;;;;14.23;4.97;;;;;;;12.15;45.76;101399.94;5033409;28;20045;-76
2021/03/29 01:56:44;;;;;;;10.02;4.38;;;;;;;12.10;45.80;101400.03;5032973;28;20061;-76
2021/03/29 01:59:13;;;;;;;11.20;4.10;;;;;;;12.05;45.92;101400.06;5034506;28;20057;-75
2021/03/29 02:01:40;;;;;;;9.73;4.25;;;;;;;12.00;46.01;101402.13;5033512;28;20065;-76
2021/03/29 02:04:08;;;;;;;7.28;3.55;;;;;;;11.96;46.08;101396.31;5033065;28;20053;-76
2021/03/29 02:06:36;;;;;;;6.85;3.90;;;;;;;11.94;46.00;101402.19;5033194;28;20422;-76
2021/03/29 02:09:05;;;;;;;10.65;4.03;;;;;;;11.89;46.06;101391.09;5032828;28;20053;-76
2021/03/29 02:11:33;;;;;;;9.23;4.28;;;;;;;11.89;45.97;101396.69;5033332;28;20064;-75
2021/03/29 02:14:03;;;;;;;9.57;4.15;;;;;;;11.89;46.06;101404.25;5034253;28;20147;-76
2021/03/29 02:16:32;;;;;;;8.98;3.63;;;;;;;11.87;46.04;101409.25;5032283;28;20411;-76
2021/03/29 02:19:01;;;;;;;10.57;4.47;;;;;;;11.84;46.26;101405.09;5032754;28;20068;-76
2021/03/29 02:21:34;;;;;;;;;;;;;;;11.79;46.18;101408.78;5033105;28;20069;-76
2021/03/29 02:24:05;;;;;;;9.10;3.95;;;;;;;11.73;46.40;101406.38;5033612;28;19925;-76
2021/03/29 02:26:35;;;;;;;8.68;3.88;;;;;;;11.68;46.53;101407.28;5032755;28;20057;-76
2021/03/29 02:29:04;;;;;;;9.90;3.67;;;;;;;11.65;46.83;101413.44;5032772;28;20505;-76
2021/03/29 02:31:33;;;;;;;9.30;3.80;;;;;;;11.64;46.65;101419.34;5033419;28;20057;-75
2021/03/29 02:34:01;;;;;;;9.32;4.05;;;;;;;11.62;46.75;101411.25;5039666;28;20059;-75
2021/03/29 02:36:28;;;;;;;11.85;4.22;;;;;;;11.62;46.78;101414.03;5052962;28;20068;-75
2021/03/29 02:38:57;;;;;;;11.00;3.80;;;;;;;11.59;46.82;101411.88;5052702;28;20053;-75
2021/03/29 02:41:27;;;;;;;8.30;3.30;;;;;;;11.55;47.22;101403.25;5052433;28;20478;-76
2021/03/29 02:43:55;;;;;;;11.65;4.60;;;;;;;11.54;46.99;101411.91;5034624;28;20061;-76
2021/03/29 02:46:23;;;;;;;10.73;3.70;;;;;;;11.53;47.10;101416.66;5032518;28;20065;-75
2021/03/29 02:48:54;;;;;;;11.97;4.40;;;;;;;11.51;46.89;101418.09;5032654;28;20054;-76
2021/03/29 02:51:23;;;;;;;11.75;4.05;;;;;;;11.46;47.39;101416.19;5032742;28;20057;-75
2021/03/29 02:53:52;;;;;;;9.35;3.55;;;;;;;11.41;47.19;101424.63;5033108;28;20053;-75
2021/03/29 02:56:21;;;;;;;8.43;4.28;;;;;;;11.37;47.21;101421.59;5032219;28;20053;-75
2021/03/29 02:58:55;;;;;;;9.20;3.40;;;;;;;11.38;47.34;101419.63;5032564;28;20125;-76
2021/03/29 03:01:24;;;;;;;10.93;5.07;;;;;;;11.36;47.14;101416.31;5032454;28;20080;-76
2021/03/29 03:03:53;;;;;;;10.17;3.57;;;;;;;11.34;47.25;101422.19;5033203;28;20068;-76
2021/03/29 03:06:25;;;;;;;7.57;3.63;;;;;;;11.33;47.54;101419.69;5032317;28;20464;-76
2021/03/29 03:08:53;;;;;;;9.02;3.80;;;;;;;11.29;47.43;101415.81;5032525;28;20072;-76
2021/03/29 03:11:21;;;;;;;10.98;3.45;;;;;;;11.25;47.74;101415.59;5031883;28;20418;-76
2021/03/29 03:13:48;;;;;;;11.65;4.10;;;;;;;11.25;47.74;101407.22;5033361;28;20053;-76
2021/03/29 03:16:17;;;;;;;11.82;3.67;;;;;;;11.21;47.46;101413.69;5032112;28;20057;-76
2021/03/29 03:18:48;;;;;;;14.95;4.28;;;;;;;11.24;47.73;101415.91;5032229;28;20068;-76
2021/03/29 03:21:17;;;;;;;9.00;3.85;;;;;;;11.19;47.62;101422.34;5032508;28;20068;-76
2021/03/29 03:23:50;;;;;;;;;;;;;;;11.15;47.78;101416.53;5034028;28;20061;-76
2021/03/29 03:26:17;;;;;;;8.48;3.97;;;;;;;11.13;47.89;101415.19;5032500;28;19921;-76
2021/03/29 03:28:46;;;;;;;9.77;4.30;;;;;;;11.13;47.97;101415.19;5034915;28;20387;-76
2021/03/29 03:31:13;;;;;;;10.80;3.70;;;;;;;11.12;47.64;101417.13;5035434;28;20084;-75
2021/03/29 03:33:41;;;;;;;9.13;3.55;;;;;;;11.15;47.67;101419.34;5040523;28;20052;-75
2021/03/29 03:36:08;;;;;;;10.18;3.42;;;;;;;11.12;48.01;101410.72;5055643;28;20052;-76
2021/03/29 03:38:38;;;;;;;10.90;4.20;;;;;;;11.09;47.98;101414.09;5055103;28;20057;-76
2021/03/29 03:41:08;;;;;;;11.98;4.10;;;;;;;11.11;47.95;101417.44;5055379;28;20434;-76
2021/03/29 03:43:36;;;;;;;11.98;3.88;;;;;;;11.11;47.70;101411.84;5053491;28;20069;-76
2021/03/29 03:46:09;;;;;;;10.27;3.60;;;;;;;11.11;47.88;101421.03;5035377;28;20058;-76
2021/03/29 03:48:38;;;;;;;7.68;3.60;;;;;;;11.09;48.03;101422.47;5035761;28;20506;-76
2021/03/29 03:51:06;;;;;;;7.63;3.20;;;;;;;11.12;47.87;101427.44;5035777;28;20060;-76
2021/03/29 03:53:34;;;;;;;14.55;4.72;;;;;;;11.10;47.80;101413.78;5036365;28;20061;-76
2021/03/29 03:56:03;;;;;;;10.00;3.42;;;;;;;11.10;47.88;101424.94;5035648;28;20066;-76
2021/03/29 03:58:31;;;;;;;10.80;3.90;;;;;;;11.05;48.01;101419.44;5035176;28;20057;-76
2021/03/29 04:00:59;;;;;;;10.45;3.83;;;;;;;11.03;48.49;101418.06;5035583;28;20049;-76
2021/03/29 04:03:26;;;;;;;14.57;5.03;;;;;;;11.04;48.02;101425.28;5035212;28;20057;-76
2021/03/29 04:05:54;;;;;;;12.60;4.68;;;;;;;11.02;48.18;101424.75;5035281;28;20509;-76
2021/03/29 04:08:20;;;;;;;10.25;3.55;;;;;;;11.03;48.13;101423.66;5035233;28;20062;-76
2021/03/29 04:10:49;;;;;;;8.93;3.97;;;;;;;11.01;48.30;101428.69;5036415;28;20057;-76
2021/03/29 04:13:24;;;;;;;9.32;3.60;;;;;;;10.99;48.36;101423.41;5034605;28;20073;-76
2021/03/29 04:15:51;;;;;;;9.60;4.05;;;;;;;11.00;48.33;101419.47;5035048;28;20418;-76
2021/03/29 04:18:17;;;;;;;8.55;3.40;;;;;;;10.99;48.41;101408.63;5035403;28;20056;-76
2021/03/29 04:20:47;;;;;;;10.93;4.32;;;;;;;11.01;48.20;101411.97;5035486;28;20061;-76
2021/03/29 04:23:14;;;;;;;8.25;3.20;;;;;;;10.99;48.29;101420.59;5035176;28;20049;-76
2021/03/29 04:25:41;;;;;;;9.55;3.22;;;;;;;10.98;48.61;101421.72;5034805;28;20490;-76
2021/03/29 04:28:08;;;;;;;8.25;3.25;;;;;;;10.95;48.36;101423.16;5034643;28;20084;-76
2021/03/29 04:30:37;;;;;;;7.68;3.17;;;;;;;10.94;48.66;101424.28;5034787;28;20411;-76
2021/03/29 04:33:04;;;;;;;6.93;3.30;;;;;;;10.93;48.32;101425.41;5034705;28;20478;-76
2021/03/29 04:35:33;;;;;;;7.95;3.05;;;;;;;10.92;48.52;101423.75;5054320;28;20068;-76
2021/03/29 04:38:01;;;;;;;8.90;3.35;;;;;;;10.90;48.87;101422.38;5054434;28;20060;-76
2021/03/29 04:40:29;;;;;;;7.38;3.15;;;;;;;10.88;48.79;101422.66;5052979;28;20060;-76
2021/03/29 04:42:56;;;;;;;10.18;3.80;;;;;;;10.88;49.21;101419.88;5054042;28;20061;-76
2021/03/29 04:45:24;;;;;;;6.63;3.03;;;;;;;10.82;49.27;101418.25;5037464;28;20060;-76
2021/03/29 04:47:52;;;;;;;9.43;3.63;;;;;;;10.81;49.35;101416.59;5034288;28;20057;-76
2021/03/29 04:50:21;;;;;;;9.95;3.20;;;;;;;10.81;49.34;101418.56;5034846;28;20069;-76
2021/03/29 04:52:48;;;;;;;10.13;3.70;;;;;;;10.84;49.17;101420.75;5034296;28;20060;-76
2021/03/29 04:55:16;;;;;;;7.32;3.50;;;;;;;10.81;49.56;101419.38;5034551;28;20395;-76
2021/03/29 04:57:43;;;;;;;8.52;3.75;;;;;;;10.86;49.34;101416.56;5034848;28;20045;-76
2021/03/29 05:00:13;;;;;;;9.38;3.13;;;;;;;10.87;49.30;101421.00;5033770;28;20427;-76
2021/03/29 05:02:40;;;;;;;8.98;3.10;;;;;;;10.87;49.23;101423.78;5034138;28;20061;-76
2021/03/29 05:05:11;;;;;;;6.13;2.78;;;;;;;10.86;49.19;101421.31;5034408;28;20049;-76
2021/03/29 05:07:38;;;;;;;9.20;3.28;;;;;;;10.87;49.71;101431.31;5034663;28;20057;-76
2021/03/29 05:10:09;;;;;;;7.15;3.50;;;;;;;10.84;49.52;101432.75;5033561;28;20061;-76
2021/03/29 05:12:36;;;;;;;5.90;3.13;;;;;;;10.86;49.31;101441.63;5033760;28;20140;-76
2021/03/29 05:15:05;;;;;;;13.63;3.38;;;;;;;10.84;49.65;101446.66;5034614;28;20053;-76
2021/03/29 05:17:32;;;;;;;10.02;3.25;;;;;;;10.85;49.98;101448.31;5034160;28;20053;-76
2021/03/29 05:19:59;;;;;;;8.20;2.80;;;;;;;10.88;49.38;101442.19;5033875;28;20056;-76
2021/03/29 05:22:27;;;;;;;9.85;3.00;;;;;;;10.92;49.46;101453.59;5033954;28;20057;-76
2021/03/29 05:24:54;;;;;;;8.02;3.20;;;;;;;10.93;49.49;101453.28;5034830;28;20503;-76
2021/03/29 05:27:20;;;;;;;8.48;3.10;;;;;;;10.90;49.63;101448.28;5033751;28;20064;-76
2021/03/29 05:29:47;;;;;;;12.05;3.25;;;;;;;10.94;49.54;101448.50;5033679;28;20053;-76
2021/03/29 05:32:16;;;;;;;10.85;3.83;;;;;;;10.94;49.51;101448.50;5033863;28;20057;-76
2021/03/29 05:34:46;;;;;;;7.32;3.33;;;;;;;10.97;49.75;101456.31;5036215;28;20064;-76
2021/03/29 05:37:14;;;;;;;9.95;3.38;;;;;;;10.96;49.24;101463.00;5033745;28;20073;-76
2021/03/29 05:39:44;;;;;;;9.75;3.35;;;;;;;11.00;49.45;101460.47;5033860;28;20084;-76
2021/03/29 05:42:11;;;;;;;7.97;2.92;;;;;;;11.04;49.40;101470.72;5034284;28;20052;-76
2021/03/29 05:44:38;;;;;;;7.82;2.65;;;;;;;11.07;49.42;101466.53;5033346;28;20060;-76
2021/03/29 05:47:06;;;;;;;7.25;3.05;;;;;;;11.10;49.00;101466.78;5033351;28;20419;-76
2021/03/29 05:49:36;;;;;;;7.80;3.13;;;;;;;11.14;49.12;101470.63;5033516;28;20076;-76
2021/03/29 05:52:03;;;;;;;;;;;;;;;11.15;49.15;101474.28;5034231;28;20053;-76
2021/03/29 05:54:30;;;;;;;8.13;3.00;;;;;;;11.18;49.20;101476.47;5033151;28;19921;-76
2021/03/29 05:56:59;;;;;;;8.35;3.05;;;;;;;11.22;49.06;101477.53;5033663;28;20057;-76
2021/03/29 05:59:34;;;;;;;8.13;2.92;;;;;;;11.27;49.01;101479.44;5032852;28;20068;-76
2021/03/29 06:02:01;;;;;;;8.50;3.28;;;;;;;11.32;48.93;101471.88;5033980;28;20059;-76
2021/03/29 06:04:45;;;;;;;11.05;3.00;;;;;;;11.38;48.62;101481.84;5033095;28;20068;-76
2021/03/29 06:07:16;;;;;;;7.07;3.00;;;;;;;11.40;48.59;101478.72;5033294;28;20060;-77
2021/03/29 06:09:45;;;;;;;11.07;2.90;;;;;;;11.45;48.47;101475.91;5032998;28;20372;-76
2021/03/29 06:12:15;;;;;;;8.98;2.90;;;;;;;11.51;48.49;101477.50;5048161;28;20478;-76
2021/03/29 06:14:44;;;;;;;7.20;3.13;;;;;;;11.52;48.62;101475.56;5053144;28;20068;-76
2021/03/29 06:17:12;;;;;;;6.55;2.90;;;;;;;11.54;48.45;101478.88;5053083;28;20052;-77
2021/03/29 06:19:46;;;;;;;6.53;2.85;;;;;;;11.58;48.58;101482.75;5053158;28;20061;-77
2021/03/29 06:22:18;;;;;;;8.75;2.97;;;;;;;11.57;48.66;101481.91;5035893;28;20062;-77
2021/03/29 06:24:58;;;;;;;8.98;2.80;;;;;;;11.57;48.60;101483.88;5032790;28;20065;-77
2021/03/29 06:27:28;;;;;;;7.60;2.50;;;;;;;11.59;48.47;101478.84;5032686;28;20053;-76
2021/03/29 06:30:14;;;;;;;;;;;;;;;11.73;48.33;101474.19;5032994;28;20058;-76
2021/03/29 06:32:53;;;;;;;7.28;3.00;;;;;;;11.75;48.18;101483.09;5032520;28;19925;-76
2021/03/29 06:35:21;;;;;;;6.90;2.38;;;;;;;11.83;48.12;101489.16;5051194;28;20410;-76
2021/03/29 06:37:49;;;;;;;7.32;2.55;;;;;;;11.92;47.91;101492.97;5052607;28;20068;-76
2021/03/29 06:40:17;;;;;;;7.50;2.75;;;;;;;12.06;47.62;101490.28;5052570;28;20402;-76
2021/03/29 06:42:45;;;;;;;8.90;2.40;;;;;;;12.11;47.48;101488.25;5052678;28;20053;-76
2021/03/29 06:45:14;;;;;;;8.35;2.35;;;;;;;12.19;47.20;101490.38;5051021;28;20486;-76
2021/03/29 06:47:42;;;;;;;8.25;2.65;;;;;;;12.29;46.87;101496.97;5052371;28;20060;-76
2021/03/29 06:50:22;;;;;;;9.15;2.63;;;;;;;12.34;46.79;101497.69;5052674;28;20060;-76
2021/03/29 06:52:49;;;;;;;6.15;2.67;;;;;;;12.39;46.95;101494.84;5052666;28;20049;-76
2021/03/29 06:55:19;;;;;;;7.82;2.90;;;;;;;12.44;46.80;101496.72;5052276;28;20057;-76
2021/03/29 06:57:58;;;;;;;10.00;3.38;;;;;;;12.57;46.42;101495.97;5052204;28;20071;-76
2021/03/29 07:00:30;;;;;;;7.45;3.33;;;;;;;12.68;46.29;101493.00;5053400;28;20053;-76
2021/03/29 07:03:00;;;;;;;9.65;3.08;;;;;;;12.88;45.71;101500.25;5045542;28;20060;-76
2021/03/29 07:05:28;;;;;;;6.32;2.47;;;;;;;12.96;45.42;101496.78;5056760;28;20061;-76
2021/03/29 07:07:55;;;;;;;7.32;2.97;;;;;;;13.04;45.55;101498.00;5056810;28;20072;-76
2021/03/29 07:10:22;;;;;;;8.82;3.03;;;;;;;13.08;45.55;101491.53;5056706;28;20057;-76
2021/03/29 07:12:51;;;;;;;7.57;2.75;;;;;;;13.18;45.46;101504.47;5043257;28;20414;-76
2021/03/29 07:15:18;;;;;;;6.97;3.03;;;;;;;13.31;44.89;101514.94;5036609;28;20049;-76
2021/03/29 07:17:46;;;;;;;8.93;3.00;;;;;;;13.65;44.39;101512.88;5036849;28;20407;-76
2021/03/29 07:20:15;;;;;;;6.90;2.70;;;;;;;14.06;43.17;101512.06;5036964;28;20056;-76
2021/03/29 07:22:43;;;;;;;11.07;3.25;;;;;;;14.68;41.78;101505.94;5037049;28;20494;-76
2021/03/29 07:25:12;;;;;;;5.03;2.72;;;;;;;15.96;39.13;101508.22;5036924;28;20061;-76
2021/03/29 07:27:44;;;;;;;6.50;2.55;;;;;;;17.47;36.02;101518.88;5044856;28;20053;-76
2021/03/29 07:30:16;;;;;;;7.07;2.67;;;;;;;18.58;34.08;101500.03;5059530;28;20073;-76
2021/03/29 07:32:52;;;;;;;6.95;2.70;;;;;;;19.66;31.77;101516.94;5047906;28;20081;-76
2021/03/29 07:35:20;;;;;;;6.55;3.15;;;;;;;20.39;30.33;101511.66;5055336;28;20068;-76
2021/03/29 07:37:55;;;;;;;6.28;2.03;;;;;;;21.23;28.95;101508.94;5055640;28;20068;-76
2021/03/29 07:40:43;;;;;;;5.57;1.90;;;;;;;22.10;27.77;101512.03;5053768;28;20068;-77
2021/03/29 07:43:13;;;;;;;5.90;2.38;;;;;;;22.53;26.62;101512.22;5049917;28;20521;-75
2021/03/29 07:45:49;;;;;;;7.68;2.30;;;;;;;23.05;25.92;101503.22;5054779;28;20055;-75
2021/03/29 07:48:32;;;;;;;7.10;3.38;;;;;;;23.61;25.44;101503.88;5055204;28;20060;-74
2021/03/29 07:51:00;;;;;;;6.43;2.80;;;;;;;24.27;24.36;101504.59;5055762;28;20061;-74
2021/03/29 07:53:42;;;;;;;5.47;2.60;;;;;;;24.87;23.21;101518.06;5050508;28;20406;-75
2021/03/29 07:56:11;;;;;;;7.22;2.22;;;;;;;25.02;23.28;101516.22;5056092;28;20060;-75
2021/03/29 07:58:46;;;;;;;6.13;2.50;;;;;;;24.75;22.70;101516.28;5055543;28;20057;-75
2021/03/29 08:01:17;;;;;;;5.55;2.58;;;;;;;24.57;23.73;101515.22;5056167;28;20439;-75
2021/03/29 08:03:51;;;;;;;6.70;2.40;;;;;;;24.56;23.23;101513.59;5038449;28;20054;-75
2021/03/29 08:06:47;;;;;;;6.95;2.70;;;;;;;25.39;22.21;101507.72;5035993;28;20060;-75
2021/03/29 08:09:20;;;;;;;7.60;2.42;;;;;;;26.31;20.99;101508.91;5047665;28;20045;-74
2021/03/29 08:12:04;;;;;;;5.97;2.85;;;;;;;26.46;20.80;101522.09;5039106;28;20053;-73
2021/03/29 08:14:36;;;;;;;6.68;3.15;;;;;;;26.94;20.48;101512.56;5054111;28;20057;-73
2021/03/29 08:17:45;;;;;;;4.70;2.40;;;;;;;27.20;20.03;101513.47;5056130;28;20060;-78
2021/03/29 08:20:24;;;;;;;4.93;2.63;;;;;;;27.23;19.80;101512.69;5053093;28;20064;-76
2021/03/29 08:23:30;;;;;;;9.68;2.65;;;;;;;27.28;20.10;101518.03;5045342;28;20487;-77
2021/03/29 08:26:13;;;;;;;5.15;2.70;;;;;;;28.12;19.03;101512.81;5047116;28;20053;-76
2021/03/29 08:29:28;;;;;;;7.45;2.50;;;;;;;27.90;19.43;101517.72;5039244;28;20052;-75
2021/03/29 08:32:14;;;;;;;8.80;2.88;;;;;;;29.22;18.02;101512.91;5053231;28;20067;-76
2021/03/29 08:34:45;;;;;;;5.82;2.33;;;;;;;30.26;16.66;101515.03;5051918;28;20056;-76
2021/03/29 08:37:13;;;;;;;6.45;2.35;;;;;;;30.15;16.20;101526.63;5052652;28;20049;-75
2021/03/29 08:39:42;;;;;;;5.40;2.10;;;;;;;29.43;17.50;101522.66;5052873;28;20072;-76
2021/03/29 08:42:10;;;;;;;8.70;2.87;;;;;;;29.55;16.76;101511.47;5053763;28;20105;-74
2021/03/29 08:44:39;;;;;;;4.43;2.20;;;;;;;30.07;16.39;101522.19;5054166;28;20435;-74
2021/03/29 08:47:09;;;;;;;7.53;2.80;;;;;;;30.23;15.80;101515.88;5052930;28;20053;-74
2021/03/29 08:49:36;;;;;;;5.15;2.20;;;;;;;30.37;15.70;101522.75;5041500;28;20061;-76
2021/03/29 08:52:08;;;;;;;5.57;2.72;;;;;;;31.67;15.01;101514.13;5048739;28;20525;-75
2021/03/29 08:54:46;;;;;;;5.50;2.00;;;;;;;32.10;13.70;101513.41;5049905;28;21548;-75
2021/03/29 08:57:13;;;;;;;6.85;2.40;;;;;;;32.63;13.85;101514.47;5053949;28;20418;-76
2021/03/29 08:59:40;;;;;;;6.35;2.25;;;;;;;32.61;13.23;101507.53;5053424;28;20079;-76
2021/03/29 09:02:15;;;;;;;6.43;2.55;;;;;;;32.74;13.45;101509.31;5053601;28;20060;-76
2021/03/29 09:04:57;;;;;;;6.22;2.30;;;;;;;33.32;12.79;101516.75;5053907;28;20399;-76
2021/03/29 09:07:32;;;;;;;3.83;2.40;;;;;;;34.25;11.81;101525.25;5037557;28;20053;-76
2021/03/29 09:10:00;;;;;;;4.28;2.05;;;;;;;34.53;12.00;101520.75;5034858;28;20076;-75
2021/03/29 09:12:33;;;;;;;6.70;2.45;;;;;;;35.16;11.35;101525.16;5037691;28;20066;-75
2021/03/29 09:15:01;;;;;;;5.22;2.00;;;;;;;35.02;11.06;101529.28;5033684;28;20061;-76
2021/03/29 09:17:33;;;;;;;6.75;2.50;;;;;;;34.48;11.43;101527.09;5033431;28;20057;-74
2021/03/29 09:20:01;;;;;;;5.18;1.63;;;;;;;33.06;11.53;101533.81;5039918;28;20053;-77
2021/03/29 09:22:30;;;;;;;4.40;2.00;;;;;;;31.58;12.98;101534.00;5049766;28;20044;-75
2021/03/29 09:24:59;;;;;;;6.53;2.22;;;;;;;30.74;13.76;101537.13;5043506;28;20050;-76
2021/03/29 09:27:32;;;;;;;3.83;2.10;;;;;;;30.29;14.13;101542.94;5034339;28;20061;-76
2021/03/29 09:30:00;;;;;;;3.85;2.20;;;;;;;32.45;12.83;101535.00;5033961;28;20065;-76
2021/03/29 09:32:30;;;;;;;7.70;2.08;;;;;;;33.91;11.50;101535.97;5033460;28;20076;-76
2021/03/29 09:34:57;;;;;;;5.72;2.28;;;;;;;35.25;10.10;101538.97;5049035;28;20057;-76
2021/03/29 09:37:26;;;;;;;5.13;2.30;;;;;;;36.50;9.60;101539.81;5052442;28;20071;-76
2021/03/29 09:39:59;;;;;;;4.30;1.95;;;;;;;36.92;9.18;101556.94;5053345;28;20071;-77
2021/03/29 09:42:41;;;;;;;5.88;2.08;;;;;;;35.09;9.57;101558.03;5053399;28;20600;-77
2021/03/29 09:45:10;;;;;;;5.32;2.47;;;;;;;34.99;9.86;101547.56;5053274;28;20053;-75
2021/03/29 09:47:37;;;;;;;6.82;2.58;;;;;;;36.55;8.63;101545.81;5051144;28;20053;-75
2021/03/29 09:50:08;;;;;;;3.72;2.10;;;;;;;35.85;8.46;101547.81;5052678;28;20056;-75
2021/03/29 09:52:39;;;;;;;4.70;1.98;;;;;;;35.82;8.69;101554.53;5054758;28;20079;-76
2021/03/29 09:55:10;;;;;;;5.03;2.00;;;;;;;36.04;8.16;101548.84;5052497;28;20057;-76
2021/03/29 09:57:39;;;;;;;5.10;1.95;;;;;;;34.40;9.47;101554.59;5040331;28;20068;-75
2021/03/29 10:00:16;;;;;;;6.65;1.90;;;;;;;34.56;9.33;101569.84;5033123;28;20057;-75
2021/03/29 10:02:43;;;;;;;3.55;2.00;;;;;;;34.92;9.06;101565.97;5032767;28;20054;-75
2021/03/29 10:05:12;;;;;;;3.78;2.10;;;;;;;34.94;9.75;101565.50;5032668;28;20061;-74
2021/03/29 10:07:53;;;;;;;4.93;2.25;;;;;;;35.21;9.05;101561.44;5046303;28;20049;-75
2021/03/29 10:10:26;;;;;;;7.50;2.58;;;;;;;36.72;7.91;101552.25;5052707;28;20056;-76
2021/03/29 10:13:08;;;;;;;5.63;1.80;;;;;;;36.06;7.99;101562.88;5052244;28;20072;-75
2021/03/29 10:15:36;;;;;;;4.95;2.20;;;;;;;37.27;7.69;101563.47;5052700;28;20064;-77
2021/03/29 10:18:09;;;;;;;4.47;2.20;;;;;;;38.02;6.84;101559.63;5048481;28;20050;-80
2021/03/29 10:20:37;;;;;;;3.95;2.10;;;;;;;38.37;6.07;101573.94;5049824;28;20483;-75
2021/03/29 10:23:30;;;;;;;4.70;2.10;;;;;;;38.30;6.18;101571.34;5051901;28;20053;-76
2021/03/29 10:26:19;;;;;;;6.32;2.28;;;;;;;38.46;6.54;101558.59;5032849;28;20061;-75
2021/03/29 10:28:58;;;;;;;4.72;2.40;;;;;;;38.28;6.44;101566.00;5032420;28;20057;-75
2021/03/29 10:31:25;;;;;;;5.88;2.22;;;;;;;38.44;6.32;101555.34;5032436;28;20491;-75
2021/03/29 10:33:53;;;;;;;4.20;2.20;;;;;;;39.31;5.99;101579.25;5038694;28;20399;-75
2021/03/29 10:36:21;;;;;;;3.85;2.35;;;;;;;40.08;5.68;101563.44;5034968;28;20060;-75
2021/03/29 10:38:50;;;;;;;5.25;2.10;;;;;;;40.37;5.28;101581.09;5035342;28;20068;-75
2021/03/29 10:41:19;;;;;;;3.55;2.00;;;;;;;40.47;5.05;101576.00;5036792;28;20057;-75
2021/03/29 10:43:49;;;;;;;3.63;1.83;;;;;;;40.03;5.01;101573.69;5036802;28;20062;-75
2021/03/29 10:46:16;;;;;;;5.40;1.88;;;;;;;38.97;5.46;101573.34;5037521;28;20065;-75
2021/03/29 10:48:43;;;;;;;5.03;2.03;;;;;;;38.74;5.43;101586.44;5036527;28;20068;-76
2021/03/29 10:51:10;;;;;;;4.63;2.85;;;;;;;38.09;5.38;101573.06;5036357;28;20057;-76
2021/03/29 10:53:37;;;;;;;4.80;1.90;;;;;;;37.36;6.16;101577.28;5037033;28;20057;-75
2021/03/29 10:56:05;;;;;;;4.15;2.15;;;;;;;37.04;6.37;101576.38;5037745;28;20053;-75
2021/03/29 10:58:33;;;;;;;6.05;2.30;;;;;;;37.96;6.66;101561.53;5036448;28;20061;-75
2021/03/29 11:01:01;;;;;;;4.38;1.90;;;;;;;39.42;5.28;101564.19;5037009;28;20057;-75
2021/03/29 11:03:28;;;;;;;3.67;2.03;;;;;;;40.23;5.20;101570.13;5037170;28;20048;-75
2021/03/29 11:05:55;;;;;;;6.47;2.13;;;;;;;41.44;4.33;101567.78;5036328;28;20053;-75
2021/03/29 11:08:22;;;;;;;4.35;2.05;;;;;;;40.76;4.33;101575.31;5036222;28;20053;-76
2021/03/29 11:10:49;;;;;;;6.60;2.60;;;;;;;41.85;4.59;101562.06;5037483;28;20057;-75
2021/03/29 11:13:16;;;;;;;5.10;2.15;;;;;;;42.82;4.13;101564.16;5036420;28;20091;-75
2021/03/29 11:15:43;;;;;;;4.22;1.98;;;;;;;43.65;3.50;101556.72;5036563;28;20053;-75
2021/03/29 11:18:11;;;;;;;3.97;1.83;;;;;;;43.16;3.09;101574.16;5035666;28;20056;-76
2021/03/29 11:20:38;;;;;;;4.38;2.15;;;;;;;42.17;3.32;101574.00;5036647;28;20479;-75
2021/03/29 11:23:05;;;;;;;4.22;2.33;;;;;;;42.16;3.34;101567.34;5036083;28;20058;-76
2021/03/29 11:25:32;;;;;;;5.72;2.15;;;;;;;42.54;3.33;101552.94;5036398;28;20061;-75
2021/03/29 11:28:02;;;;;;;4.93;2.20;;;;;;;41.91;3.19;101559.22;5036146;28;20076;-75
2021/03/29 11:30:29;;;;;;;4.57;2.45;;;;;;;42.06;4.15;101565.06;5036336;28;20505;-75
2021/03/29 11:32:59;;;;;;;5.60;2.67;;;;;;;42.26;3.34;101562.16;5041828;28;20049;-75
2021/03/29 11:35:26;;;;;;;5.93;2.30;;;;;;;42.77;3.38;101556.91;5055037;28;20072;-75
2021/03/29 11:37:54;;;;;;;3.35;1.95;;;;;;;43.20;3.38;101554.19;5055428;28;20131;-75
2021/03/29 11:40:20;;;;;;;4.38;2.35;;;;;;;42.85;3.46;101548.53;5055386;28;20061;-76
2021/03/29 11:42:47;;;;;;;4.72;2.38;;;;;;;42.96;3.33;101551.56;5053095;28;20328;-74